Map

Track Data

SID SEASON NUMBER BASIN SUBBASIN NAME ISO_TIME NATURE LAT LON WMO_WIND WMO_PRES WMO_AGENCY TRACK_TYPE DIST2LAND LANDFALL IFLAG USA_AGENCY USA_ATCF_ID USA_LAT USA_LON USA_RECORD USA_STATUS USA_WIND USA_PRES USA_SSHS USA_R34_NE USA_R34_SE USA_R34_SW USA_R34_NW USA_R50_NE USA_R50_SE USA_R50_SW USA_R50_NW USA_R64_NE USA_R64_SE USA_R64_SW USA_R64_NW USA_POCI USA_ROCI USA_RMW USA_EYE TOKYO_LAT TOKYO_LON TOKYO_GRADE TOKYO_WIND TOKYO_PRES TOKYO_R50_DIR TOKYO_R50_LONG TOKYO_R50_SHORT TOKYO_R30_DIR TOKYO_R30_LONG TOKYO_R30_SHORT TOKYO_LAND CMA_LAT CMA_LON CMA_CAT CMA_WIND CMA_PRES HKO_LAT HKO_LON HKO_CAT HKO_WIND HKO_PRES NEWDELHI_LAT NEWDELHI_LON NEWDELHI_GRADE NEWDELHI_WIND NEWDELHI_PRES NEWDELHI_CI NEWDELHI_DP NEWDELHI_POCI REUNION_LAT REUNION_LON REUNION_TYPE REUNION_WIND REUNION_PRES REUNION_TNUM REUNION_CI REUNION_RMW REUNION_R34_NE REUNION_R34_SE REUNION_R34_SW REUNION_R34_NW REUNION_R50_NE REUNION_R50_SE REUNION_R50_SW REUNION_R50_NW REUNION_R64_NE REUNION_R64_SE REUNION_R64_SW REUNION_R64_NW BOM_LAT BOM_LON BOM_TYPE BOM_WIND BOM_PRES BOM_TNUM BOM_CI BOM_RMW BOM_R34_NE BOM_R34_SE BOM_R34_SW BOM_R34_NW BOM_R50_NE BOM_R50_SE BOM_R50_SW BOM_R50_NW BOM_R64_NE BOM_R64_SE BOM_R64_SW BOM_R64_NW BOM_ROCI BOM_POCI BOM_EYE BOM_POS_METHOD BOM_PRES_METHOD NADI_LAT NADI_LON NADI_CAT NADI_WIND NADI_PRES WELLINGTON_LAT WELLINGTON_LON WELLINGTON_WIND WELLINGTON_PRES DS824_LAT DS824_LON DS824_STAGE DS824_WIND DS824_PRES TD9636_LAT TD9636_LON TD9636_STAGE TD9636_WIND TD9636_PRES TD9635_LAT TD9635_LON TD9635_WIND TD9635_PRES TD9635_ROCI NEUMANN_LAT NEUMANN_LON NEUMANN_CLASS NEUMANN_WIND NEUMANN_PRES MLC_LAT MLC_LON MLC_CLASS MLC_WIND MLC_PRES USA_GUST BOM_GUST BOM_GUST_PER REUNION_GUST REUNION_GUST_PER USA_SEAHGT USA_SEARAD_NE USA_SEARAD_SE USA_SEARAD_SW USA_SEARAD_NW STORM_SPEED STORM_DIR
1905229N19116 1905 33 WP MM NOT_NAMED 1905-08-16 16:00:00 NR 19.4000 116.200 main 371 348 __________O___ -1 19.4000 116.200 7 12 282
1905229N19116 1905 33 WP MM NOT_NAMED 1905-08-16 18:00:00 NR 19.4894 115.773 main 348 313 __________P___ -1 19.4894 115.773 7 12 283
1905229N19116 1905 33 WP MM NOT_NAMED 1905-08-16 21:00:00 NR 19.6201 115.149 main 313 292 __________P___ -1 19.6201 115.149 7 12 283
1905229N19116 1905 33 WP MM NOT_NAMED 1905-08-17 00:00:00 NR 19.7451 114.566 main 292 251 __________P___ -1 19.7451 114.566 7 11 283
1905229N19116 1905 33 WP MM NOT_NAMED 1905-08-17 03:00:00 NR 19.8627 114.052 main 251 242 __________P___ -1 19.8627 114.052 7 10 284
1905229N19116 1905 33 WP MM NOT_NAMED 1905-08-17 04:00:00 NR 19.9000 113.900 main 242 221 __________O___ -1 19.9000 113.900 2 8 285
1905229N19116 1905 33 WP MM NOT_NAMED 1905-08-17 06:00:00 NR 19.9717 113.629 main 221 203 __________P___ -1 19.9717 113.629 2 7 287
1905229N19116 1905 33 WP MM NOT_NAMED 1905-08-17 09:00:00 NR 20.0735 113.292 main 203 182 __________P___ -1 20.0735 113.292 2 6 289
1905229N19116 1905 33 WP MM NOT_NAMED 1905-08-17 12:00:00 NR 20.1712 113.016 main 182 164 __________P___ -1 20.1712 113.016 2 5 292
1905229N19116 1905 33 WP MM NOT_NAMED 1905-08-17 15:00:00 NR 20.2677 112.776 main 164 161 __________P___ -1 20.2677 112.776 2 5 293
1905229N19116 1905 33 WP MM NOT_NAMED 1905-08-17 16:00:00 NR 20.3000 112.700 main 161 146 __________O___ -1 20.3000 112.700 2 5 292
1905229N19116 1905 33 WP MM NOT_NAMED 1905-08-17 18:00:00 NR 20.3586 112.538 main 146 142 __________P___ -1 20.3586 112.538 2 5 292
1905229N19116 1905 33 WP MM NOT_NAMED 1905-08-17 21:00:00 NR 20.4464 112.314 main 142 123 __________P___ -1 20.4464 112.314 2 5 294
1905229N19116 1905 33 WP MM NOT_NAMED 1905-08-18 00:00:00 NR 20.5426 112.099 main 123 94 __________P___ -1 20.5426 112.099 2 5 297
1905229N19116 1905 33 WP MM NOT_NAMED 1905-08-18 03:00:00 NR 20.6565 111.878 main 94 91 __________P___ -1 20.6565 111.878 2 5 299
1905229N19116 1905 33 WP MM NOT_NAMED 1905-08-18 04:00:00 NR 20.7000 111.800 main 91 73 __________O___ -1 20.7000 111.800 2 6 300
1905229N19116 1905 33 WP MM NOT_NAMED 1905-08-18 06:00:00 NR 20.7969 111.625 main 73 45 __________P___ -1 20.7969 111.625 2 6 302
1905229N19116 1905 33 WP MM NOT_NAMED 1905-08-18 09:00:00 NR 20.9612 111.351 main 45 35 __________P___ -1 20.9612 111.351 2 6 304
1905229N19116 1905 33 WP MM NOT_NAMED 1905-08-18 12:00:00 NR 21.1425 111.070 main 39 10 __________P___ -1 21.1425 111.070 2 6 306
1905229N19116 1905 33 WP MM NOT_NAMED 1905-08-18 15:00:00 NR 21.3346 110.791 main 10 0 __________P___ -1 21.3346 110.791 2 6 307
1905229N19116 1905 33 WP MM NOT_NAMED 1905-08-18 16:00:00 NR 21.4000 110.700 main 0 0 __________O___ -1 21.4000 110.700 2 6 308
1905229N19116 1905 33 WP MM NOT_NAMED 1905-08-18 18:00:00 NR 21.5317 110.523 main 0 0 __________P___ -1 21.5317 110.523 2 6 309
1905229N19116 1905 33 WP MM NOT_NAMED 1905-08-18 21:00:00 NR 21.7309 110.268 main 0 0 __________P___ -1 21.7309 110.268 2 6 311
1905229N19116 1905 33 WP MM NOT_NAMED 1905-08-19 00:00:00 NR 21.9315 110.022 main 0 0 __________P___ -1 21.9315 110.022 2 6 312
1905229N19116 1905 33 WP MM NOT_NAMED 1905-08-19 03:00:00 NR 22.1329 109.780 main 0 0 __________P___ -1 22.1329 109.780 2 6 312
1905229N19116 1905 33 WP MM NOT_NAMED 1905-08-19 04:00:00 NR 22.2000 109.700 main 0 __________O___ -1 22.2000 109.700 2 6 310

Digital Typhoon Data and Search

About IBTrACS Database

This database is a web-friendly format of International Best Track Archive for Climate Stewardship (IBTrACS), a global best track data archive curated by NOAA dating back to 1842.

Updated: 2021-11-26